Time;durP1;ratioP1;P1;durP2;ratioP2;P2;SDS_P1;SDS_P2;PMS_P1;PMS_P2;Temp;Humidity;BMP_temperature;BMP_pressure;BME280_temperature;BME280_humidity;BME280_pressure;Samples;Min_cycle;Max_cycle;Signal;HPM_P1;HPM_P2
2022/01/28 00:00:48;;;;;;;12.63;10.45;;;;;;;3.14;82.62;100170.91;2622030;54;20039;-64
2022/01/28 00:03:18;;;;;;;15.27;10.82;;;;;;;3.17;82.26;100181.09;2621194;54;20042;-66
2022/01/28 00:05:48;;;;;;;13.80;10.57;;;;;;;3.19;82.17;100178.41;2620572;54;20034;-64
2022/01/28 00:08:20;;;;;;;15.30;10.70;;;;;;;3.18;82.00;100180.19;2620810;54;20577;-63
2022/01/28 00:10:52;;;;;;;12.02;9.18;;;;;;;3.21;82.20;100177.31;2620369;54;20050;-64
2022/01/28 00:13:25;;;;;;;11.73;8.40;;;;;;;3.23;82.01;100172.00;2621108;54;20074;-65
2022/01/28 00:19:01;;;;;;;11.23;8.80;;;;;;;3.25;81.79;100170.09;2619677;46;20050;-63
2022/01/28 00:38:02;;;;;;;19.08;12.43;;;;;;;3.37;81.68;100190.09;2621377;47;20030;-64
2022/01/28 00:40:36;;;;;;;16.27;12.57;;;;;;;3.35;81.45;100189.41;2621223;47;20569;-64
2022/01/28 00:43:07;;;;;;;16.48;12.15;;;;;;;3.38;81.92;100194.38;2621788;54;20038;-64
2022/01/28 00:45:38;;;;;;;18.67;13.05;;;;;;;3.39;81.45;100198.69;2621332;47;20026;-64
2022/01/28 00:48:08;;;;;;;19.15;12.88;;;;;;;3.37;81.47;100195.34;2621499;54;20573;-66
2022/01/28 00:50:38;;;;;;;18.50;14.38;;;;;;;3.39;81.64;100208.31;2619874;47;20121;-64
2022/01/28 00:53:08;;;;;;;18.15;13.23;;;;;;;3.38;81.63;100197.00;2618002;54;20027;-64
2022/01/28 00:55:40;;;;;;;19.08;14.75;;;;;;;3.35;81.48;100202.47;2618231;54;20034;-64
2022/01/28 00:58:10;;;;;;;20.02;13.50;;;;;;;3.38;81.43;100204.84;2618523;46;20514;-64
2022/01/28 01:00:40;;;;;;;16.58;12.90;;;;;;;3.37;81.27;100207.56;2618569;54;20154;-63
2022/01/28 01:03:10;;;;;;;21.30;14.23;;;;;;;3.39;81.69;100216.97;2618796;39;20433;-65
2022/01/28 01:05:40;;;;;;;21.90;14.25;;;;;;;3.41;81.63;100233.38;2618541;54;20061;-64
2022/01/28 01:08:10;;;;;;;21.23;14.18;;;;;;;3.41;81.22;100232.53;2617739;47;20042;-64
2022/01/28 01:10:42;;;;;;;20.90;14.45;;;;;;;3.42;81.20;100237.66;2617525;54;20141;-64
2022/01/28 01:13:12;;;;;;;21.60;15.40;;;;;;;3.42;81.47;100240.25;2617667;54;20038;-63
2022/01/28 01:15:45;;;;;;;21.55;15.07;;;;;;;3.40;81.14;100238.72;2618383;54;20037;-63
2022/01/28 01:18:21;;;;;;;21.35;15.32;;;;;;;3.42;81.41;100249.88;2617777;47;20041;-64
2022/01/28 01:21:03;;;;;;;22.33;14.55;;;;;;;3.39;81.39;100242.28;2618104;54;20538;-63
2022/01/28 01:23:35;;;;;;;19.83;13.75;;;;;;;3.38;81.07;100254.50;2617990;54;20030;-62
2022/01/28 01:26:11;;;;;;;19.27;14.43;;;;;;;3.43;81.44;100269.88;2617448;47;20045;-63
2022/01/28 01:28:42;;;;;;;23.08;14.65;;;;;;;3.40;81.45;100276.16;2618102;54;20027;-63
2022/01/28 01:31:18;;;;;;;20.35;15.13;;;;;;;3.41;81.64;100276.97;2618018;54;20042;-63
2022/01/28 01:33:54;;;;;;;22.15;15.68;;;;;;;3.38;81.33;100278.03;2617360;47;20030;-64
2022/01/28 01:36:24;;;;;;;24.35;15.63;;;;;;;3.42;81.38;100276.88;2618180;54;20038;-64
2022/01/28 01:38:54;;;;;;;23.23;14.75;;;;;;;3.41;81.41;100277.81;2618347;54;20053;-64
2022/01/28 01:41:32;;;;;;;22.23;15.55;;;;;;;3.40;81.90;100288.38;2617859;54;20046;-63
2022/01/28 01:44:06;;;;;;;22.33;15.30;;;;;;;3.47;81.88;100300.91;2617762;54;20050;-62
2022/01/28 01:46:57;;;;;;;21.58;15.20;;;;;;;3.50;81.62;100299.00;2618381;54;20073;-63
2022/01/28 01:52:09;;;;;;;24.65;15.52;;;;;;;3.45;81.61;100307.19;2618921;54;20090;-63
2022/01/28 01:54:40;;;;;;;24.73;14.77;;;;;;;3.44;81.72;100305.53;2618869;54;20035;-64
2022/01/28 01:57:14;;;;;;;25.20;15.65;;;;;;;3.44;81.97;100298.50;2617658;54;20034;-63
2022/01/28 01:59:45;;;;;;;25.25;15.43;;;;;;;3.47;82.05;100302.69;2617946;54;20027;-62
2022/01/28 02:02:14;;;;;;;21.23;15.23;;;;;;;3.47;81.88;100300.09;2618598;54;20034;-62
2022/01/28 02:04:44;;;;;;;22.85;15.02;;;;;;;3.43;82.30;100304.69;2618562;54;20033;-62
2022/01/28 02:07:17;;;;;;;21.55;14.25;;;;;;;3.40;82.50;100302.28;2618641;54;20061;-62
2022/01/28 02:09:46;;;;;;;19.77;14.40;;;;;;;3.42;82.41;100300.38;2618196;54;20026;-62
2022/01/28 02:12:19;;;;;;;23.88;14.70;;;;;;;3.47;82.35;100310.53;2619013;39;20407;-62
2022/01/28 02:14:48;;;;;;;24.08;15.30;;;;;;;3.48;81.96;100313.03;2618243;54;20030;-62
2022/01/28 02:17:18;;;;;;;22.05;15.05;;;;;;;3.53;82.24;100315.31;2618132;54;20030;-62
2022/01/28 02:19:48;;;;;;;24.23;15.13;;;;;;;3.55;82.13;100318.66;2618345;39;20426;-62
2022/01/28 02:22:21;;;;;;;21.70;14.68;;;;;;;3.54;82.32;100321.38;2618860;39;20435;-63
2022/01/28 02:24:50;;;;;;;23.30;15.20;;;;;;;3.52;81.95;100312.81;2618477;54;20025;-62
2022/01/28 02:27:20;;;;;;;22.77;15.32;;;;;;;3.57;82.29;100318.53;2617467;47;20034;-63
2022/01/28 02:29:50;;;;;;;23.05;15.10;;;;;;;3.60;81.92;100310.50;2618400;54;20043;-64
2022/01/28 02:32:20;;;;;;;26.45;15.27;;;;;;;3.59;82.15;100309.66;2618352;54;20038;-62
2022/01/28 02:34:50;;;;;;;23.38;12.95;;;;;;;3.60;82.13;100313.09;2618406;54;20038;-63
2022/01/28 02:37:22;;;;;;;25.73;15.70;;;;;;;3.58;81.79;100307.97;2620993;54;20553;-62
2022/01/28 02:39:52;;;;;;;22.35;14.02;;;;;;;3.59;81.96;100311.41;2620117;54;20026;-64
2022/01/28 02:42:33;;;;;;;22.92;15.13;;;;;;;3.63;82.04;100312.84;2618755;54;20054;-64
2022/01/28 02:45:03;;;;;;;25.55;15.07;;;;;;;3.63;82.10;100311.09;2618426;54;20522;-62
2022/01/28 02:47:37;;;;;;;22.33;13.80;;;;;;;3.65;81.60;100305.75;2618087;54;20034;-63
2022/01/28 02:50:08;;;;;;;22.30;13.77;;;;;;;3.71;81.66;100308.78;2621351;54;20030;-63
2022/01/28 02:52:50;;;;;;;19.90;12.82;;;;;;;3.79;81.61;100315.19;2623128;54;20034;-64
2022/01/28 02:55:20;;;;;;;20.27;13.13;;;;;;;3.82;81.71;100310.56;2622912;54;20031;-62
2022/01/28 02:58:02;;;;;;;22.67;13.32;;;;;;;3.84;81.58;100305.25;2622239;47;20530;-65
2022/01/28 03:00:32;;;;;;;19.75;13.13;;;;;;;3.77;81.01;100304.84;2619677;39;20425;-63
2022/01/28 03:03:02;;;;;;;20.60;13.40;;;;;;;3.76;81.21;100307.59;2618390;54;20035;-63
2022/01/28 03:05:34;;;;;;;22.45;13.07;;;;;;;3.72;81.29;100296.53;2619704;39;20421;-62
2022/01/28 03:08:07;;;;;;;21.63;15.18;;;;;;;3.69;81.21;100299.34;2619272;54;20014;-63
2022/01/28 03:10:52;;;;;;;19.92;12.23;;;;;;;3.67;81.33;100296.00;2619207;54;20585;-63
2022/01/28 03:13:57;;;;;;;22.50;14.50;;;;;;;3.63;81.07;100297.16;2619026;54;20057;-64
2022/01/28 03:16:29;;;;;;;20.80;14.15;;;;;;;3.60;81.30;100308.72;2619391;39;20863;-64
2022/01/28 03:19:02;;;;;;;23.80;14.15;;;;;;;3.60;81.01;100305.25;2618991;54;20041;-64
2022/01/28 03:21:44;;;;;;;19.40;12.80;;;;;;;3.58;81.08;100307.97;2619382;54;20038;-63
2022/01/28 03:24:17;;;;;;;19.52;12.82;;;;;;;3.56;81.29;100307.25;2619191;54;20022;-65
2022/01/28 03:26:48;;;;;;;20.45;14.57;;;;;;;3.50;81.34;100315.53;2618561;54;20051;-64
2022/01/28 03:29:18;;;;;;;24.92;14.18;;;;;;;3.45;81.21;100318.47;2618492;54;20534;-63
2022/01/28 03:31:48;;;;;;;24.98;15.02;;;;;;;3.45;81.58;100328.09;2619061;54;20045;-63
2022/01/28 03:34:17;;;;;;;22.15;14.68;;;;;;;3.47;81.31;100334.91;2618535;47;20570;-62
2022/01/28 03:36:47;;;;;;;26.08;14.98;;;;;;;3.46;81.86;100322.75;2619114;47;20023;-63
2022/01/28 03:39:20;;;;;;;24.40;15.95;;;;;;;3.47;81.77;100336.69;2621307;54;20069;-63
2022/01/28 03:41:50;;;;;;;23.13;15.13;;;;;;;3.51;81.83;100337.28;2620830;51;20085;-64
2022/01/28 03:44:20;;;;;;;24.08;13.88;;;;;;;3.48;81.35;100340.97;2620584;47;20085;-64
2022/01/28 03:46:50;;;;;;;24.55;14.05;;;;;;;3.51;81.40;100348.59;2621505;54;20053;-63
2022/01/28 03:49:19;;;;;;;24.08;14.63;;;;;;;3.52;81.65;100352.88;2620984;47;20085;-64
2022/01/28 03:51:49;;;;;;;24.60;15.68;;;;;;;3.54;81.68;100364.03;2622033;47;20038;-63
2022/01/28 03:54:22;;;;;;;25.60;15.15;;;;;;;3.55;81.53;100357.03;2621196;46;20031;-63
2022/01/28 03:56:52;;;;;;;23.45;14.32;;;;;;;3.54;81.21;100357.97;2621755;54;20550;-66
2022/01/28 03:59:22;;;;;;;26.85;15.32;;;;;;;3.52;81.63;100357.28;2621164;54;20578;-63
2022/01/28 04:01:51;;;;;;;24.27;13.95;;;;;;;3.51;81.46;100366.91;2620622;54;20523;-64
2022/01/28 04:12:39;;;;;;;25.35;15.70;;;;;;;3.44;81.45;100381.34;2619671;54;20081;-62
2022/01/28 04:15:21;;;;;;;26.88;15.27;;;;;;;3.46;81.28;100372.44;2618459;47;20045;-63
2022/01/28 04:17:53;;;;;;;25.00;15.40;;;;;;;3.47;81.62;100389.81;2618362;54;20049;-62
2022/01/28 04:20:22;;;;;;;22.40;15.00;;;;;;;3.44;81.78;100387.41;2619830;54;20043;-63
2022/01/28 04:22:52;;;;;;;24.40;14.93;;;;;;;3.46;81.77;100388.13;2621016;54;20026;-63
2022/01/28 04:25:24;;;;;;;24.02;14.88;;;;;;;3.46;81.37;100397.75;2623557;54;20030;-63
2022/01/28 04:27:53;;;;;;;25.25;16.05;;;;;;;3.42;81.41;100393.66;2623069;54;20027;-63
2022/01/28 04:30:23;;;;;;;26.15;14.88;;;;;;;3.41;81.12;100397.25;2620784;54;20022;-63
2022/01/28 04:32:53;;;;;;;26.33;15.27;;;;;;;3.38;81.51;100392.22;2619338;54;20073;-63
2022/01/28 04:35:23;;;;;;;24.15;14.05;;;;;;;3.36;81.26;100384.50;2618686;54;20033;-62
2022/01/28 04:38:03;;;;;;;22.75;14.30;;;;;;;3.36;81.21;100397.56;2619010;54;20053;-62
2022/01/28 04:40:43;;;;;;;25.95;14.48;;;;;;;3.33;81.29;100395.16;2623132;54;20035;-63
2022/01/28 04:43:19;;;;;;;22.13;13.73;;;;;;;3.30;81.19;100387.53;2621935;54;20541;-64
2022/01/28 04:45:55;;;;;;;20.55;12.98;;;;;;;3.29;81.01;100382.41;2622376;54;20049;-64
2022/01/28 04:48:31;;;;;;;21.60;14.10;;;;;;;3.26;81.56;100387.84;2622144;54;20030;-62
2022/01/28 04:51:21;;;;;;;22.30;13.70;;;;;;;3.28;81.01;100393.81;2619821;54;20037;-64
2022/01/28 04:54:01;;;;;;;22.00;13.68;;;;;;;3.23;81.24;100402.81;2618546;54;20039;-64
2022/01/28 04:56:47;;;;;;;23.38;14.30;;;;;;;3.22;81.03;100402.91;2618257;54;20073;-64
2022/01/28 04:59:36;;;;;;;20.83;13.60;;;;;;;3.21;81.33;100398.63;2618640;47;20038;-64
2022/01/28 05:05:02;;;;;;;23.25;13.50;;;;;;;3.16;81.32;100401.56;2618269;54;20026;-63
2022/01/28 05:13:28;;;;;;;22.90;13.13;;;;;;;3.10;81.24;100425.53;2618170;47;20045;-65
2022/01/28 05:24:36;;;;;;;26.80;14.35;;;;;;;3.14;80.86;100431.34;2619119;54;20038;-63
2022/01/28 05:27:09;;;;;;;24.45;13.63;;;;;;;3.09;80.83;100423.81;2618612;54;20026;-62
2022/01/28 05:29:42;;;;;;;23.57;13.60;;;;;;;3.09;80.94;100433.44;2620394;54;20102;-64
2022/01/28 05:32:12;;;;;;;23.02;13.40;;;;;;;3.11;80.93;100442.03;2620617;47;20307;-63
2022/01/28 05:34:43;;;;;;;26.10;14.40;;;;;;;3.11;81.29;100449.88;2620219;39;20418;-64
2022/01/28 05:37:13;;;;;;;23.20;14.23;;;;;;;3.10;81.03;100451.66;2622709;54;20570;-64
2022/01/28 05:39:43;;;;;;;21.80;13.30;;;;;;;3.10;81.17;100448.16;2622454;54;20037;-64
2022/01/28 05:42:12;;;;;;;24.23;13.13;;;;;;;3.10;80.81;100450.78;2621530;54;20042;-63
2022/01/28 05:44:45;;;;;;;24.83;13.82;;;;;;;3.05;80.58;100458.09;2622871;54;20035;-64
2022/01/28 05:47:16;;;;;;;21.98;12.65;;;;;;;3.09;80.91;100460.41;2622487;54;20538;-63
2022/01/28 05:49:46;;;;;;;22.00;13.40;;;;;;;3.09;80.76;100460.41;2622878;54;20045;-64
2022/01/28 05:52:16;;;;;;;23.45;13.00;;;;;;;3.10;80.80;100466.47;2621974;54;20035;-64
2022/01/28 05:54:45;;;;;;;22.63;12.75;;;;;;;3.10;80.74;100472.56;2620582;54;20174;-64
2022/01/28 05:57:15;;;;;;;24.98;12.63;;;;;;;3.12;80.82;100472.44;2619455;54;20038;-65
2022/01/28 05:59:48;;;;;;;25.35;13.75;;;;;;;3.15;80.89;100482.69;2621927;39;20494;-65
2022/01/28 06:02:18;;;;;;;23.30;14.10;;;;;;;3.16;80.75;100493.03;2621276;54;20081;-64
2022/01/28 06:04:48;;;;;;;21.67;13.10;;;;;;;3.16;80.66;100486.97;2621275;54;20046;-64
2022/01/28 06:07:20;;;;;;;22.58;13.38;;;;;;;3.17;80.55;100486.03;2620750;54;20038;-64
2022/01/28 06:09:50;;;;;;;23.45;14.02;;;;;;;3.15;80.54;100488.75;2622094;54;20027;-63
2022/01/28 06:12:20;;;;;;;23.00;14.13;;;;;;;3.14;80.63;100487.09;2620763;54;20026;-64
2022/01/28 06:14:52;;;;;;;25.33;14.60;;;;;;;3.10;80.41;100480.41;2621816;54;20037;-63
2022/01/28 06:17:22;;;;;;;25.35;14.13;;;;;;;3.07;80.62;100480.59;2619362;54;20057;-65
2022/01/28 06:19:52;;;;;;;22.25;14.27;;;;;;;3.03;80.68;100471.28;2618829;54;20038;-62
2022/01/28 06:22:22;;;;;;;24.73;13.63;;;;;;;3.01;80.58;100481.00;2618463;54;20030;-64
2022/01/28 06:24:51;;;;;;;25.42;15.75;;;;;;;2.99;80.83;100482.88;2618534;54;20047;-63
2022/01/28 06:27:22;;;;;;;21.52;13.80;;;;;;;3.00;80.92;100497.63;2618851;39;20438;-64
2022/01/28 06:29:55;;;;;;;31.77;16.13;;;;;;;3.03;80.58;100492.19;2619053;54;20034;-64
2022/01/28 06:32:24;;;;;;;26.05;14.93;;;;;;;3.00;80.80;100491.56;2617703;54;20029;-64
2022/01/28 06:34:54;;;;;;;25.33;15.05;;;;;;;2.96;80.32;100488.31;2618121;54;20047;-63
2022/01/28 06:37:24;;;;;;;24.00;14.90;;;;;;;2.95;80.40;100497.09;2618488;54;20045;-64
2022/01/28 06:39:53;;;;;;;25.90;14.40;;;;;;;2.93;80.82;100494.56;2618876;54;20038;-65
2022/01/28 06:42:23;;;;;;;24.30;14.45;;;;;;;2.94;80.72;100503.25;2618024;47;20041;-63
2022/01/28 06:44:55;;;;;;;27.08;14.90;;;;;;;2.94;80.72;100498.03;2618489;54;20557;-64
2022/01/28 06:47:26;;;;;;;27.10;14.95;;;;;;;2.93;80.73;100493.72;2618119;54;20061;-64
2022/01/28 06:49:55;;;;;;;23.13;14.23;;;;;;;2.94;80.70;100508.50;2618057;47;20077;-64
2022/01/28 06:52:25;;;;;;;23.23;14.55;;;;;;;2.95;80.41;100518.00;2618686;54;20042;-64
2022/01/28 06:54:55;;;;;;;28.83;16.38;;;;;;;2.94;80.77;100521.56;2618402;54;20037;-62
2022/01/28 06:57:24;;;;;;;26.55;15.27;;;;;;;2.88;80.06;100530.59;2618454;39;20470;-64
2022/01/28 06:59:57;;;;;;;33.42;17.60;;;;;;;2.77;80.61;100542.69;2617839;54;20046;-64
2022/01/28 07:02:27;;;;;;;37.67;17.15;;;;;;;2.75;80.65;100544.59;2618310;54;20038;-65
2022/01/28 07:04:58;;;;;;;26.15;16.13;;;;;;;2.73;81.03;100544.66;2618527;54;20030;-63
2022/01/28 07:07:29;;;;;;;26.15;15.63;;;;;;;2.70;80.82;100550.13;2618391;54;20042;-65
2022/01/28 07:09:58;;;;;;;30.80;16.63;;;;;;;2.74;81.26;100564.66;2617957;54;20042;-63
2022/01/28 07:12:28;;;;;;;30.67;16.98;;;;;;;2.79;81.35;100572.19;2617588;54;20125;-64
2022/01/28 07:15:01;;;;;;;28.45;15.70;;;;;;;2.85;81.37;100580.44;2617884;54;20054;-64
2022/01/28 07:17:30;;;;;;;30.05;16.50;;;;;;;2.94;81.63;100582.47;2617150;47;20085;-63
2022/01/28 07:20:00;;;;;;;26.52;15.30;;;;;;;3.03;80.97;100578.41;2617880;47;20043;-64
2022/01/28 07:22:30;;;;;;;28.50;15.73;;;;;;;3.08;81.29;100576.31;2617346;47;20061;-62
2022/01/28 07:25:00;;;;;;;27.92;16.05;;;;;;;3.16;81.07;100587.09;2617975;54;20057;-64
2022/01/28 07:27:30;;;;;;;25.85;14.65;;;;;;;3.24;80.54;100581.38;2618013;54;20042;-63
2022/01/28 07:30:02;;;;;;;28.33;15.43;;;;;;;3.31;80.50;100581.81;2617562;54;20022;-63
2022/01/28 07:32:32;;;;;;;27.35;15.68;;;;;;;3.34;80.32;100574.56;2617471;54;20033;-63
2022/01/28 07:35:02;;;;;;;24.70;16.05;;;;;;;3.38;80.03;100588.28;2617975;54;20037;-65
2022/01/28 07:37:31;;;;;;;27.10;16.15;;;;;;;3.38;80.09;100588.28;2618135;47;20030;-63
2022/01/28 07:40:02;;;;;;;29.05;17.00;;;;;;;3.39;80.47;100596.03;2619027;54;20030;-63
2022/01/28 07:42:35;;;;;;;26.27;17.00;;;;;;;3.46;80.29;100596.44;2618742;54;20069;-63
2022/01/28 07:45:10;;;;;;;33.33;17.98;;;;;;;3.46;80.15;100602.50;2619074;54;20089;-64
2022/01/28 07:47:40;;;;;;;29.20;18.92;;;;;;;3.49;79.81;100611.94;2618652;39;20442;-63
2022/01/28 07:50:11;;;;;;;28.50;17.27;;;;;;;3.54;80.10;100615.06;2618790;47;20031;-63
2022/01/28 07:52:41;;;;;;;31.40;18.58;;;;;;;3.60;80.23;100614.69;2618329;54;20074;-63
2022/01/28 07:55:13;;;;;;;30.48;17.02;;;;;;;3.69;80.06;100610.59;2618478;47;20039;-64
2022/01/28 07:57:45;;;;;;;23.48;15.48;;;;;;;3.70;80.01;100613.09;2618004;54;20038;-64
2022/01/28 08:00:18;;;;;;;26.90;16.38;;;;;;;3.73;80.14;100622.53;2618410;54;20549;-63
2022/01/28 08:02:47;;;;;;;27.33;16.30;;;;;;;3.80;79.98;100625.56;2618392;47;20054;-64
2022/01/28 08:05:17;;;;;;;25.88;16.45;;;;;;;3.87;79.75;100634.66;2618887;54;20650;-64
2022/01/28 08:07:47;;;;;;;27.70;16.90;;;;;;;3.89;79.13;100641.47;2618916;54;20081;-64
2022/01/28 08:10:19;;;;;;;27.15;16.95;;;;;;;3.94;79.20;100635.91;2618645;54;20022;-63
2022/01/28 08:12:49;;;;;;;29.38;16.50;;;;;;;3.90;78.84;100634.44;2619125;54;20078;-63
2022/01/28 08:15:25;;;;;;;33.50;18.48;;;;;;;3.94;78.68;100622.84;2619758;51;20034;-64
2022/01/28 08:17:55;;;;;;;28.92;15.93;;;;;;;3.94;78.81;100623.66;2619964;46;20053;-66
2022/01/28 08:20:24;;;;;;;28.00;17.17;;;;;;;4.03;78.98;100632.66;2619750;54;20042;-64
2022/01/28 08:22:57;;;;;;;28.02;15.90;;;;;;;4.12;78.63;100633.78;2620710;54;20031;-65
2022/01/28 08:25:32;;;;;;;28.33;16.23;;;;;;;4.18;78.11;100636.00;2619245;47;20034;-64
2022/01/28 08:28:03;;;;;;;25.30;14.52;;;;;;;4.19;78.10;100637.66;2620347;46;20057;-65
2022/01/28 08:30:38;;;;;;;24.48;14.50;;;;;;;4.29;78.24;100635.28;2619229;54;20075;-64
2022/01/28 08:33:08;;;;;;;24.13;13.95;;;;;;;4.31;77.79;100636.81;2619121;54;20027;-65
2022/01/28 08:35:39;;;;;;;25.08;15.25;;;;;;;4.37;77.83;100636.41;2618936;54;20034;-66
2022/01/28 08:38:14;;;;;;;27.65;15.48;;;;;;;4.46;77.63;100637.53;2619546;54;20039;-65
2022/01/28 08:40:45;;;;;;;29.58;15.00;;;;;;;4.48;77.63;100648.72;2619539;54;20085;-65
2022/01/28 08:43:15;;;;;;;28.08;14.90;;;;;;;4.59;77.49;100653.22;2619600;54;20178;-64
2022/01/28 08:45:47;;;;;;;26.85;14.57;;;;;;;4.60;77.17;100653.09;2619758;54;20046;-64
2022/01/28 08:48:17;;;;;;;24.33;15.68;;;;;;;4.54;77.22;100647.47;2618991;54;20064;-64
2022/01/28 08:50:47;;;;;;;29.83;15.43;;;;;;;4.60;77.70;100657.50;2619380;54;20045;-66
2022/01/28 08:53:16;;;;;;;26.05;15.65;;;;;;;4.66;77.04;100667.56;2619883;54;20637;-65
2022/01/28 08:55:46;;;;;;;30.75;16.15;;;;;;;4.79;76.87;100675.38;2619529;54;20030;-65
2022/01/28 08:58:15;;;;;;;28.65;14.75;;;;;;;4.85;76.74;100672.28;2620658;31;20475;-66
2022/01/28 09:00:50;;;;;;;25.08;15.43;;;;;;;4.87;76.92;100667.78;2619863;54;20034;-67
2022/01/28 09:03:22;;;;;;;23.15;13.88;;;;;;;4.82;76.43;100664.69;2620632;47;20546;-64
2022/01/28 09:05:53;;;;;;;27.75;14.57;;;;;;;4.78;76.77;100671.09;2623963;54;20054;-65
2022/01/28 09:08:22;;;;;;;24.65;14.55;;;;;;;4.80;76.87;100677.88;2623944;54;20081;-64
2022/01/28 09:11:08;;;;;;;22.35;14.68;;;;;;;4.89;76.50;100674.56;2623401;39;20415;-65
2022/01/28 09:13:40;;;;;;;30.30;16.23;;;;;;;4.90;76.32;100670.19;2622839;54;20089;-64
2022/01/28 09:16:12;;;;;;;20.90;14.05;;;;;;;4.85;76.21;100673.13;2624002;54;20086;-64
2022/01/28 09:18:42;;;;;;;24.23;15.45;;;;;;;4.88;76.17;100677.31;2622169;54;20038;-64
2022/01/28 09:21:12;;;;;;;25.05;14.48;;;;;;;4.87;76.23;100692.22;2623910;54;20034;-67
2022/01/28 09:23:41;;;;;;;28.50;15.77;;;;;;;4.84;75.97;100688.97;2623875;54;20039;-67
2022/01/28 09:26:11;;;;;;;27.48;16.65;;;;;;;4.78;76.11;100694.66;2622132;54;20154;-65
2022/01/28 09:28:40;;;;;;;30.15;17.13;;;;;;;4.74;76.76;100691.41;2621306;54;20070;-65
2022/01/28 09:31:12;;;;;;;25.23;15.57;;;;;;;4.72;76.90;100701.16;2621055;54;20089;-64
2022/01/28 09:33:43;;;;;;;31.10;16.75;;;;;;;4.75;77.07;100703.56;2620167;54;20055;-65
2022/01/28 09:36:13;;;;;;;26.75;17.30;;;;;;;4.76;76.82;100699.16;2619506;54;20026;-65
2022/01/28 09:38:43;;;;;;;28.95;17.48;;;;;;;4.79;77.08;100704.19;2619887;54;20034;-65
2022/01/28 09:41:14;;;;;;;33.15;18.48;;;;;;;4.70;76.83;100703.91;2620585;39;20419;-65
2022/01/28 09:43:48;;;;;;;30.98;18.65;;;;;;;4.72;76.71;100698.53;2622384;54;20030;-65
2022/01/28 09:46:21;;;;;;;32.20;17.83;;;;;;;4.71;76.94;100716.03;2622946;54;20081;-65
2022/01/28 09:48:51;;;;;;;31.10;19.63;;;;;;;4.67;76.99;100719.00;2622360;54;20018;-64
2022/01/28 09:51:21;;;;;;;32.97;19.80;;;;;;;4.78;77.21;100718.25;2620412;31;20531;-64
2022/01/28 09:53:51;;;;;;;31.00;17.75;;;;;;;4.94;76.71;100721.44;2618200;47;20038;-65
2022/01/28 09:56:20;;;;;;;33.45;20.00;;;;;;;5.18;76.66;100722.31;2617973;54;20081;-66
2022/01/28 09:58:50;;;;;;;35.67;20.23;;;;;;;5.28;76.33;100719.00;2618522;54;20166;-64
2022/01/28 10:01:22;;;;;;;29.08;18.98;;;;;;;5.16;76.58;100723.34;2618442;54;20070;-65
2022/01/28 10:04:03;;;;;;;27.38;16.73;;;;;;;5.00;76.46;100723.63;2618388;54;20135;-64
2022/01/28 10:06:33;;;;;;;24.55;15.40;;;;;;;4.91;75.91;100714.63;2618513;54;20145;-64
2022/01/28 10:09:09;;;;;;;28.88;17.02;;;;;;;4.86;76.01;100716.75;2618603;54;20050;-65
2022/01/28 10:11:42;;;;;;;32.38;18.65;;;;;;;4.89;75.73;100720.91;2618863;54;20034;-64
2022/01/28 10:14:15;;;;;;;28.05;17.88;;;;;;;5.06;76.03;100725.81;2618214;54;20525;-65
2022/01/28 10:16:57;;;;;;;39.58;18.15;;;;;;;5.38;75.25;100709.50;2618779;54;20162;-64
2022/01/28 10:19:29;;;;;;;31.50;17.25;;;;;;;5.61;74.88;100715.69;2618025;54;20027;-67
2022/01/28 10:21:58;;;;;;;27.00;16.52;;;;;;;5.50;74.53;100716.47;2618571;39;20403;-66
2022/01/28 10:24:29;;;;;;;29.25;15.82;;;;;;;5.38;74.88;100720.84;2617968;54;20146;-65
2022/01/28 10:27:06;;;;;;;27.40;16.15;;;;;;;5.32;74.36;100721.28;2617496;47;20126;-65
2022/01/28 10:29:37;;;;;;;29.95;16.67;;;;;;;5.29;74.58;100724.13;2618820;39;20434;-66
2022/01/28 10:32:12;;;;;;;28.23;15.38;;;;;;;5.33;74.23;100728.19;2617827;54;20039;-66
2022/01/28 10:34:45;;;;;;;34.45;17.00;;;;;;;5.35;73.84;100736.81;2618928;31;20542;-65
2022/01/28 10:37:17;;;;;;;27.40;16.40;;;;;;;5.30;74.05;100735.47;2618267;54;20077;-66
2022/01/28 10:39:50;;;;;;;28.40;16.60;;;;;;;5.30;73.92;100731.03;2617940;54;20182;-66
2022/01/28 10:42:36;;;;;;;24.63;15.45;;;;;;;5.43;73.48;100726.59;2617438;54;20034;-65
2022/01/28 10:45:10;;;;;;;30.55;16.05;;;;;;;5.55;73.22;100724.00;2618280;54;20117;-66
2022/01/28 10:47:43;;;;;;;;;;;;;;;5.63;73.19;100730.38;2618023;54;20078;-65
2022/01/28 10:50:35;;;;;;;34.28;19.42;;;;;;;5.76;72.94;100730.31;2617951;39;20350;-68
2022/01/28 10:53:10;;;;;;;26.05;15.60;;;;;;;5.85;72.51;100713.84;2618074;54;20059;-65
2022/01/28 10:55:41;;;;;;;35.58;19.20;;;;;;;5.83;72.64;100717.53;2618106;54;20034;-66
2022/01/28 10:58:13;;;;;;;29.60;16.90;;;;;;;5.79;71.83;100709.06;2617938;54;20042;-66
2022/01/28 11:00:44;;;;;;;33.22;20.50;;;;;;;5.95;72.05;100712.22;2617963;54;20134;-63
2022/01/28 11:03:17;;;;;;;19.98;12.25;;;;;;;6.00;71.08;100725.03;2617336;54;20034;-65
2022/01/28 11:05:48;;;;;;;20.98;12.60;;;;;;;6.02;70.92;100711.78;2617824;54;20027;-63
2022/01/28 11:08:17;;;;;;;23.27;13.10;;;;;;;6.16;71.24;100717.66;2618202;54;20542;-65
2022/01/28 11:10:47;;;;;;;19.88;12.80;;;;;;;6.21;71.01;100719.94;2618031;54;20058;-66
2022/01/28 11:13:16;;;;;;;21.02;12.73;;;;;;;6.34;70.97;100725.06;2618196;54;20057;-65
2022/01/28 11:15:46;;;;;;;24.40;13.77;;;;;;;6.37;70.67;100730.09;2619690;39;20458;-64
2022/01/28 11:18:20;;;;;;;24.85;13.75;;;;;;;6.39;70.02;100733.44;2619030;54;20026;-65
2022/01/28 11:20:53;;;;;;;20.15;11.45;;;;;;;6.32;69.64;100726.97;2619218;54;20125;-64
2022/01/28 11:23:31;;;;;;;21.38;13.30;;;;;;;6.23;69.28;100723.25;2619369;54;20045;-64
2022/01/28 11:26:17;;;;;;;21.63;10.55;;;;;;;6.23;69.11;100715.38;2619682;39;20815;-64
2022/01/28 11:28:50;;;;;;;18.13;11.80;;;;;;;6.17;69.37;100705.38;2619468;54;20089;-65
2022/01/28 11:31:44;;;;;;;18.92;10.38;;;;;;;6.09;68.93;100705.13;2619487;54;20027;-66
2022/01/28 11:34:22;;;;;;;15.13;11.05;;;;;;;6.03;69.25;100700.31;2619157;54;20065;-66
2022/01/28 11:36:53;;;;;;;21.40;11.70;;;;;;;6.02;69.50;100703.91;2619339;54;20042;-66
2022/01/28 11:39:30;;;;;;;19.00;11.90;;;;;;;6.09;69.56;100697.22;2620349;39;20587;-65
2022/01/28 11:42:06;;;;;;;21.02;11.07;;;;;;;6.01;68.92;100699.59;2621194;54;20034;-66
2022/01/28 11:44:44;;;;;;;19.52;10.15;;;;;;;6.00;69.32;100697.91;2619313;54;20077;-64
2022/01/28 11:47:23;;;;;;;16.02;8.88;;;;;;;6.08;68.96;100695.53;2619152;54;20150;-64
2022/01/28 11:50:01;;;;;;;15.05;8.98;;;;;;;6.27;68.34;100695.81;2619137;54;20162;-66
2022/01/28 11:52:33;;;;;;;14.35;9.45;;;;;;;6.36;68.10;100696.88;2618522;54;20562;-66
2022/01/28 11:55:33;;;;;;;15.65;9.43;;;;;;;6.56;67.73;100692.69;2618910;54;20034;-64
2022/01/28 11:58:05;;;;;;;15.13;8.60;;;;;;;6.43;67.50;100691.03;2618932;54;20077;-65
2022/01/28 12:00:37;;;;;;;17.23;9.13;;;;;;;6.29;67.21;100693.06;2618935;54;20046;-65
2022/01/28 12:03:18;;;;;;;16.17;8.70;;;;;;;6.20;67.32;100687.59;2618764;54;20562;-65
2022/01/28 12:05:58;;;;;;;13.07;8.73;;;;;;;6.34;67.33;100670.75;2618721;54;20533;-64
2022/01/28 12:08:30;;;;;;;16.63;8.90;;;;;;;6.48;67.39;100674.91;2618176;46;20034;-64
2022/01/28 12:11:02;;;;;;;15.45;8.50;;;;;;;6.47;67.18;100680.28;2617975;54;20629;-64
2022/01/28 12:13:34;;;;;;;19.83;8.45;;;;;;;6.63;66.98;100670.25;2618867;54;20034;-64
2022/01/28 12:16:11;;;;;;;15.68;8.95;;;;;;;6.72;66.01;100669.50;2618800;54;20030;-64
2022/01/28 12:18:56;;;;;;;14.05;9.55;;;;;;;6.68;66.05;100682.03;2618623;54;20042;-65
2022/01/28 12:21:31;;;;;;;14.02;8.45;;;;;;;6.57;66.53;100675.97;2618088;54;20038;-65
2022/01/28 12:24:30;;;;;;;13.15;8.95;;;;;;;6.39;66.62;100680.88;2618423;54;20034;-64
2022/01/28 13:43:42;;;;;;;12.73;7.38;;;;;;;6.25;64.46;100663.59;2598310;31;20526;-65
2022/01/28 13:46:17;;;;;;;15.27;8.70;;;;;;;6.34;64.91;100664.66;2617413;54;20053;-65